Time;durP1;ratioP1;P1;durP2;ratioP2;P2;SDS_P1;SDS_P2;PMS_P1;PMS_P2;Temp;Humidity;BMP_temperature;BMP_pressure;BME280_temperature;BME280_humidity;BME280_pressure;Samples;Min_cycle;Max_cycle;Signal;HPM_P1;HPM_P2
2021/09/08 00:00:16;;;;;;;1.75;1.65;;;22.80;51.30;;;-147.20;100.00;58430.41;5092468;28;20055;-10
2021/09/08 00:02:42;;;;;;;2.05;1.83;;;22.80;51.30;;;-147.20;100.00;58430.41;5092841;28;20161;-10
2021/09/08 00:05:10;;;;;;;2.33;1.63;;;22.70;51.30;;;-147.20;100.00;58430.41;5095764;28;20043;-10
2021/09/08 00:07:36;;;;;;;2.20;2.00;;;22.80;51.40;;;-147.20;100.00;58430.41;5095469;28;20075;-11
2021/09/08 00:10:04;;;;;;;1.67;1.55;;;22.70;51.30;;;-147.20;100.00;58430.41;5095863;28;20494;-10
2021/09/08 00:12:30;;;;;;;2.15;1.95;;;22.80;51.40;;;-147.20;100.00;58430.41;5095662;28;20036;-10
2021/09/08 00:14:55;;;;;;;2.13;1.92;;;22.80;51.40;;;-147.20;100.00;58430.41;5077662;28;20048;-9
2021/09/08 00:17:21;;;;;;;1.80;1.70;;;22.80;51.40;;;-147.20;100.00;58430.41;5095525;28;20158;-10
2021/09/08 00:19:47;;;;;;;2.03;1.75;;;22.70;51.30;;;-147.20;100.00;58430.41;5077377;28;20044;-10
2021/09/08 00:22:13;;;;;;;2.42;1.80;;;22.70;51.30;;;-147.20;100.00;58430.41;5095928;28;20044;-10
2021/09/08 00:24:39;;;;;;;1.70;1.60;;;22.70;51.30;;;-147.20;100.00;58430.41;5095565;28;20048;-10
2021/09/08 00:27:06;;;;;;;2.03;1.70;;;22.70;51.30;;;-147.20;100.00;58430.41;5095496;28;20093;-9
2021/09/08 00:29:34;;;;;;;1.70;1.60;;;22.70;51.30;;;-147.20;100.00;58430.41;5095330;28;20059;-10
2021/09/08 00:32:02;;;;;;;2.17;1.88;;;22.70;51.30;;;-147.20;100.00;58430.41;5095402;28;20398;-10
2021/09/08 00:34:28;;;;;;;1.63;1.52;;;22.70;51.30;;;-147.20;100.00;58430.41;5095392;28;20044;-10
2021/09/08 00:36:55;;;;;;;2.03;1.83;;;22.70;51.50;;;-147.20;100.00;58430.41;5095297;28;20142;-10
2021/09/08 00:39:21;;;;;;;1.75;1.65;;;22.70;51.30;;;-147.20;100.00;58430.41;5095213;28;20044;-10
2021/09/08 00:41:47;;;;;;;1.80;1.70;;;22.70;51.30;;;-147.20;100.00;58430.41;5095383;28;20048;-10
2021/09/08 00:44:14;;;;;;;2.00;1.70;;;22.70;51.30;;;-147.20;100.00;58430.41;5095228;28;20075;-10
2021/09/08 00:46:43;;;;;;;1.77;1.67;;;22.70;51.40;;;-147.20;100.00;58430.41;5095083;28;20040;-10
2021/09/08 00:49:09;;;;;;;2.00;1.80;;;22.70;51.40;;;-147.20;100.00;58430.41;5095106;28;20512;-9
2021/09/08 00:51:37;;;;;;;1.90;1.70;;;22.70;51.40;;;-147.20;100.00;58430.41;5095128;28;20052;-10
2021/09/08 00:54:12;;;;;;;2.10;1.90;;;22.70;51.40;;;-147.20;100.00;58430.41;5094991;28;20184;-10
2021/09/08 00:56:40;;;;;;;1.77;1.65;;;22.70;51.40;;;-147.20;100.00;58430.41;5095204;28;20127;-10
2021/09/08 00:59:08;;;;;;;2.00;1.55;;;22.70;51.90;;;-147.20;100.00;58430.41;5095493;28;20044;-10
2021/09/08 01:01:35;;;;;;;2.10;1.83;;;22.70;51.40;;;-147.20;100.00;58430.41;5094856;28;20055;-10
2021/09/08 01:04:01;;;;;;;1.60;1.50;;;22.70;51.40;;;-147.20;100.00;58430.41;5094989;28;20044;-10
2021/09/08 01:06:29;;;;;;;1.80;1.70;;;22.70;51.40;;;-147.20;100.00;58430.41;5094826;28;20048;-10
2021/09/08 01:08:55;;;;;;;1.70;1.60;;;22.70;51.50;;;-147.20;100.00;58430.41;5094550;28;20566;-10
2021/09/08 01:11:22;;;;;;;2.00;1.80;;;22.70;51.50;;;-147.20;100.00;58430.41;5076540;28;20048;-10
2021/09/08 01:13:48;;;;;;;1.80;1.70;;;22.70;51.50;;;-147.20;100.00;58430.41;5094573;28;20072;-10
2021/09/08 01:16:15;;;;;;;1.83;1.70;;;22.70;51.40;;;-147.20;100.00;58430.41;5094598;28;20146;-10
2021/09/08 01:18:45;;;;;;;2.28;2.08;;;22.70;51.50;;;-147.20;100.00;58430.41;5094667;28;20052;-10
2021/09/08 01:21:12;;;;;;;1.73;1.63;;;22.70;51.50;;;-147.20;100.00;58430.41;5094868;28;20117;-10
2021/09/08 01:23:37;;;;;;;2.45;2.00;;;22.70;51.40;;;-147.20;100.00;58430.41;5094657;28;20499;-10
2021/09/08 01:26:03;;;;;;;2.33;2.00;;;22.70;51.50;;;-147.20;100.00;58430.41;5094637;28;20040;-10
2021/09/08 01:28:30;;;;;;;2.15;1.55;;;22.70;51.50;;;-147.20;100.00;58430.41;5094477;28;20044;-10
2021/09/08 01:30:57;;;;;;;2.13;1.92;;;22.70;51.50;;;-147.20;100.00;58430.41;5094786;28;20153;-10
2021/09/08 01:33:24;;;;;;;1.77;1.67;;;22.60;52.00;;;-147.20;100.00;58430.41;5094548;28;20139;-10
2021/09/08 01:35:50;;;;;;;1.77;1.67;;;22.70;51.50;;;-147.20;100.00;58430.41;5094377;28;20052;-10
2021/09/08 01:38:16;;;;;;;2.10;1.90;;;22.70;51.50;;;-147.20;100.00;58430.41;5095017;28;20056;-10
2021/09/08 01:40:42;;;;;;;2.35;2.00;;;22.70;51.50;;;-147.20;100.00;58430.41;5094779;28;20056;-10
2021/09/08 01:43:09;;;;;;;1.65;1.55;;;22.70;51.50;;;-147.20;100.00;58430.41;5094325;28;20047;-10
2021/09/08 01:45:38;;;;;;;1.95;1.77;;;22.60;51.50;;;-147.20;100.00;58430.41;5094797;28;20051;-10
2021/09/08 01:48:04;;;;;;;2.33;2.13;;;22.60;51.50;;;-147.20;100.00;58430.41;5093821;28;20156;-10
2021/09/08 01:50:30;;;;;;;1.70;1.60;;;22.70;51.50;;;-147.20;100.00;58430.41;5094018;28;20051;-10
2021/09/08 01:52:56;;;;;;;1.90;1.80;;;22.70;51.50;;;-147.20;100.00;58430.41;5094085;28;20052;-10
2021/09/08 01:55:21;;;;;;;2.00;1.80;;;22.60;51.50;;;-147.20;100.00;58430.41;5094351;28;20048;-10
2021/09/08 01:57:47;;;;;;;1.58;1.48;;;22.60;51.80;;;-147.20;100.00;58430.41;5093965;28;20082;-10
2021/09/08 02:00:15;;;;;;;1.80;1.67;;;22.60;51.60;;;-147.20;100.00;58430.41;5094527;28;20055;-10
2021/09/08 02:02:40;;;;;;;2.55;1.92;;;22.60;51.50;;;-147.20;100.00;58430.41;5093908;28;20047;-10
2021/09/08 02:05:08;;;;;;;2.10;1.90;;;22.60;51.50;;;-147.20;100.00;58430.41;5094317;28;20105;-10
2021/09/08 02:07:34;;;;;;;1.92;1.73;;;22.60;51.50;;;-147.20;100.00;58430.41;5094233;28;20048;-10
2021/09/08 02:09:59;;;;;;;1.67;1.58;;;22.60;51.50;;;-147.20;100.00;58430.41;5093891;28;20516;-10
2021/09/08 02:12:25;;;;;;;2.00;1.80;;;22.60;51.50;;;-147.20;100.00;58430.41;5093869;28;20048;-9
2021/09/08 02:14:51;;;;;;;2.03;1.83;;;22.60;51.50;;;-147.20;100.00;58430.41;5093853;28;20063;-10
2021/09/08 02:17:17;;;;;;;1.67;1.58;;;22.60;51.60;;;-147.20;100.00;58430.41;5093987;28;20058;-10
2021/09/08 02:19:43;;;;;;;1.90;1.70;;;22.60;51.50;;;-147.20;100.00;58430.41;5094086;28;20135;-10
2021/09/08 02:22:08;;;;;;;2.72;1.77;;;22.60;51.50;;;-147.20;100.00;58430.41;5093752;28;20516;-10
2021/09/08 02:24:34;;;;;;;1.75;1.63;;;22.60;51.60;;;-147.20;100.00;58430.41;5093004;28;20052;-9
2021/09/08 02:27:00;;;;;;;2.03;1.83;;;22.60;51.50;;;-147.20;100.00;58430.41;5094121;28;20052;-10
2021/09/08 02:29:26;;;;;;;1.77;1.67;;;22.60;51.60;;;-147.20;100.00;58430.41;5093880;28;20048;-10
2021/09/08 02:31:51;;;;;;;2.00;1.80;;;22.60;51.60;;;-147.20;100.00;58430.41;5093598;28;20044;-10
2021/09/08 02:34:17;;;;;;;2.03;1.83;;;22.60;51.60;;;-147.20;100.00;58430.41;5093515;28;20048;-10
2021/09/08 02:36:43;;;;;;;1.70;1.60;;;22.60;51.60;;;-147.20;100.00;58430.41;5093281;28;20135;-10
2021/09/08 02:39:09;;;;;;;2.05;1.90;;;22.60;51.60;;;-147.20;100.00;58430.41;5075257;28;20063;-10
2021/09/08 02:41:35;;;;;;;2.13;1.77;;;22.70;51.60;;;-147.20;100.00;58430.41;5093447;28;20036;-10
2021/09/08 02:44:01;;;;;;;2.25;2.05;;;22.60;51.60;;;-147.20;100.00;58430.41;5075536;28;20055;-10
2021/09/08 02:46:26;;;;;;;1.92;1.73;;;22.60;51.60;;;-147.20;100.00;58430.41;5093161;28;20469;-10
2021/09/08 02:48:52;;;;;;;1.92;1.73;;;22.60;51.60;;;-147.20;100.00;58430.41;5093172;28;20143;-10
2021/09/08 02:51:18;;;;;;;2.17;1.98;;;22.60;51.60;;;-147.20;100.00;58430.41;5093907;28;20101;-10
2021/09/08 02:53:44;;;;;;;2.10;1.90;;;22.60;51.60;;;-147.20;100.00;58430.41;5093128;28;20044;-10
2021/09/08 02:56:10;;;;;;;1.70;1.60;;;22.70;51.60;;;-147.20;100.00;58430.41;5093075;28;20122;-10
2021/09/08 02:58:36;;;;;;;1.95;1.77;;;22.60;51.60;;;-147.20;100.00;58430.41;5093210;28;20056;-10
2021/09/08 03:01:02;;;;;;;1.88;1.70;;;22.60;51.60;;;-147.20;100.00;58430.41;5093195;28;20050;-10
2021/09/08 03:03:28;;;;;;;1.80;1.67;;;22.60;51.60;;;-147.20;100.00;58430.41;5093321;28;20484;-10
2021/09/08 03:05:53;;;;;;;1.75;1.60;;;22.60;51.60;;;-147.20;100.00;58430.41;5093237;28;20044;-10
2021/09/08 03:08:21;;;;;;;1.75;1.60;;;22.60;51.60;;;-147.20;100.00;58430.41;5092983;28;20048;-10
2021/09/08 03:10:48;;;;;;;2.05;1.73;;;22.60;51.60;;;-147.20;100.00;58430.41;5092909;28;20055;-10
2021/09/08 03:13:17;;;;;;;1.60;1.50;;;22.60;51.60;;;-147.20;100.00;58430.41;5093465;28;20051;-10
2021/09/08 03:15:43;;;;;;;1.88;1.77;;;22.60;51.60;;;-147.20;100.00;58430.41;5092847;28;20083;-10
2021/09/08 03:18:10;;;;;;;2.00;1.80;;;22.60;51.60;;;-147.20;100.00;58430.41;5092890;28;20059;-10
2021/09/08 03:20:36;;;;;;;1.80;1.70;;;22.60;51.70;;;-147.20;100.00;58430.41;5093111;28;20044;-10
2021/09/08 03:23:02;;;;;;;2.08;1.88;;;22.60;51.60;;;-147.20;100.00;58430.41;5092898;28;20452;-9
2021/09/08 03:25:28;;;;;;;1.77;1.67;;;22.60;51.70;;;-147.20;100.00;58430.41;5092389;28;20401;-10
2021/09/08 03:27:55;;;;;;;1.90;1.55;;;22.60;51.70;;;-147.20;100.00;58430.41;5092201;28;20040;-10
2021/09/08 03:30:21;;;;;;;2.13;1.80;;;22.60;51.70;;;-147.20;100.00;58430.41;5092643;28;20143;-10
2021/09/08 03:32:46;;;;;;;1.80;1.67;;;22.60;51.70;;;-147.20;100.00;58430.41;5092396;28;20048;-10
2021/09/08 03:35:12;;;;;;;2.03;1.83;;;22.60;51.70;;;-147.20;100.00;58430.41;5092105;28;20059;-10
2021/09/08 03:37:39;;;;;;;1.75;1.58;;;22.60;51.70;;;-147.20;100.00;58430.41;5092547;28;20055;-10
2021/09/08 03:40:06;;;;;;;2.10;1.90;;;22.60;51.70;;;-147.20;100.00;58430.41;5092599;28;20131;-10
2021/09/08 03:42:32;;;;;;;2.00;1.73;;;22.60;51.70;;;-147.20;100.00;58430.41;5092466;28;20089;-10
2021/09/08 03:44:58;;;;;;;2.65;2.03;;;22.60;51.70;;;-147.20;100.00;58430.41;5092474;28;20051;-10
2021/09/08 03:47:25;;;;;;;1.85;1.70;;;22.60;51.70;;;-147.20;100.00;58430.41;5092542;28;20051;-10
2021/09/08 03:49:51;;;;;;;1.90;1.65;;;22.60;51.70;;;-147.20;100.00;58430.41;5092463;28;20044;-10
2021/09/08 03:52:17;;;;;;;1.90;1.80;;;22.60;51.70;;;-147.20;100.00;58430.41;5074181;28;20461;-10
2021/09/08 03:54:44;;;;;;;3.25;2.10;;;22.60;51.70;;;-147.20;100.00;58430.41;5074584;28;20113;-10
2021/09/08 03:57:10;;;;;;;1.90;1.73;;;22.60;51.70;;;-147.20;100.00;58430.41;5092350;28;20056;-10
2021/09/08 03:59:37;;;;;;;2.60;1.92;;;22.60;51.70;;;-147.20;100.00;58430.41;5092715;28;20469;-10
2021/09/08 04:02:03;;;;;;;1.80;1.70;;;22.60;51.70;;;-147.20;100.00;58430.41;5092372;28;20055;-10
2021/09/08 04:04:30;;;;;;;2.00;1.80;;;22.60;51.70;;;-147.20;100.00;58430.41;5092278;28;20043;-10
2021/09/08 04:06:56;;;;;;;2.00;1.80;;;22.60;51.80;;;-147.20;100.00;58430.41;5092251;28;20044;-10
2021/09/08 04:09:21;;;;;;;2.00;1.88;;;22.60;51.80;;;-147.20;100.00;58430.41;5092274;28;20059;-10
2021/09/08 04:11:47;;;;;;;1.67;1.58;;;22.60;51.80;;;-147.20;100.00;58430.41;5092511;28;20397;-10
2021/09/08 04:14:13;;;;;;;2.05;1.80;;;22.60;51.80;;;-147.20;100.00;58430.41;5092418;28;20092;-10
2021/09/08 04:16:39;;;;;;;2.05;1.85;;;22.50;51.70;;;-147.20;100.00;58430.41;5092134;28;20511;-10
2021/09/08 04:19:05;;;;;;;2.25;2.03;;;22.60;51.80;;;-147.20;100.00;58430.41;5072404;28;20048;-10
2021/09/08 04:21:31;;;;;;;1.98;1.77;;;22.60;51.80;;;-147.20;100.00;58430.41;5092054;28;20440;-10
2021/09/08 04:23:57;;;;;;;2.10;1.90;;;22.60;51.80;;;-147.20;100.00;58430.41;5092038;28;20413;-10
2021/09/08 04:26:23;;;;;;;1.63;1.50;;;22.50;51.70;;;-147.20;100.00;58430.41;5092380;28;20048;-10
2021/09/08 04:28:49;;;;;;;2.58;2.03;;;22.50;51.70;;;-147.20;100.00;58430.41;5091788;28;20453;-10
2021/09/08 04:31:16;;;;;;;1.63;1.50;;;22.50;51.70;;;-147.20;100.00;58430.41;5091815;28;20563;-10
2021/09/08 04:33:41;;;;;;;2.78;2.03;;;22.50;51.80;;;-147.20;100.00;58430.41;5091902;28;20055;-10
2021/09/08 04:36:07;;;;;;;2.03;1.83;;;22.60;51.80;;;-147.20;100.00;58430.41;5091922;28;20040;-10
2021/09/08 04:38:34;;;;;;;2.10;1.90;;;22.50;51.70;;;-147.20;100.00;58430.41;5091675;28;20040;-10
2021/09/08 04:41:00;;;;;;;2.22;2.03;;;22.60;51.80;;;-147.20;100.00;58430.41;5090376;28;20044;-10
2021/09/08 04:43:26;;;;;;;2.10;1.90;;;22.50;51.70;;;-147.20;100.00;58430.41;5092091;28;20055;-9
2021/09/08 04:45:51;;;;;;;2.05;1.85;;;22.50;51.70;;;-147.20;100.00;58430.41;5091768;28;20505;-10
2021/09/08 04:48:17;;;;;;;2.00;1.90;;;22.50;51.70;;;-147.20;100.00;58430.41;5093948;28;20482;-10
2021/09/08 04:50:43;;;;;;;2.20;1.83;;;22.50;51.70;;;-147.20;100.00;58430.41;5095177;28;20055;-9
2021/09/08 04:53:10;;;;;;;2.03;1.83;;;22.50;51.70;;;-147.20;100.00;58430.41;5095205;28;20070;-10
2021/09/08 04:55:35;;;;;;;2.17;1.65;;;22.60;51.80;;;-147.20;100.00;58430.41;5095611;28;20066;-10
2021/09/08 04:58:01;;;;;;;1.80;1.70;;;22.50;51.70;;;-147.20;100.00;58430.41;5094605;28;20501;-10
2021/09/08 05:00:27;;;;;;;1.88;1.67;;;22.60;51.70;;;-147.20;100.00;58430.41;5094979;28;20481;-10
2021/09/08 05:02:53;;;;;;;1.48;1.38;;;22.60;51.70;;;-147.20;100.00;58430.41;5094604;28;20451;-10
2021/09/08 05:05:19;;;;;;;1.73;1.60;;;22.60;51.70;;;-147.20;100.00;58430.41;5094720;28;20048;-10
2021/09/08 05:07:44;;;;;;;2.00;1.80;;;22.60;51.60;;;-147.20;100.00;58430.41;5094502;28;20052;-10
2021/09/08 05:10:11;;;;;;;1.70;1.60;;;22.60;51.50;;;-147.20;100.00;58430.41;5095188;28;20123;-10
2021/09/08 05:12:36;;;;;;;2.28;2.00;;;22.70;51.50;;;-147.20;100.00;58430.41;5094841;28;20443;-10
2021/09/08 05:15:06;;;;;;;1.77;1.65;;;22.70;51.60;;;-147.20;100.00;58430.41;5090816;28;20040;-10
2021/09/08 05:17:32;;;;;;;2.20;2.00;;;22.80;51.40;;;-147.20;100.00;58430.41;5094330;28;20052;-10
2021/09/08 05:19:58;;;;;;;2.10;1.95;;;22.80;51.30;;;-147.20;100.00;58430.41;5094681;28;20044;-10
2021/09/08 05:22:24;;;;;;;2.10;1.90;;;22.90;51.20;;;-147.20;100.00;58430.41;5094592;28;20048;-10
2021/09/08 05:24:49;;;;;;;1.63;1.48;;;22.90;51.10;;;-147.20;100.00;58430.41;5090433;28;20044;-10
2021/09/08 05:27:15;;;;;;;1.92;1.73;;;23.00;51.00;;;-147.20;100.00;58430.41;5076418;28;20136;-10
2021/09/08 05:29:41;;;;;;;1.70;1.50;;;23.00;50.80;;;-147.20;100.00;58430.41;5094758;28;20389;-10
2021/09/08 05:32:07;;;;;;;1.70;1.60;;;23.10;50.80;;;-147.20;100.00;58430.41;5094569;28;20044;-10
2021/09/08 05:34:32;;;;;;;2.83;1.85;;;23.10;50.80;;;-147.20;100.00;58430.41;5094464;28;20040;-10
2021/09/08 05:36:58;;;;;;;1.60;1.50;;;23.20;50.50;;;-147.20;100.00;58430.41;5094220;28;20052;-10
2021/09/08 05:39:24;;;;;;;1.70;1.60;;;23.20;50.40;;;-147.20;100.00;58430.41;5094735;28;20048;-10
2021/09/08 05:41:50;;;;;;;2.35;1.60;;;23.30;50.30;;;-147.20;100.00;58430.41;5094369;28;20428;-10
2021/09/08 05:44:16;;;;;;;1.83;1.73;;;23.30;50.20;;;-147.20;100.00;58430.41;5094547;28;20066;-10
2021/09/08 05:46:41;;;;;;;2.47;1.83;;;23.40;50.10;;;-147.20;100.00;58430.41;5094061;28;20071;-10
2021/09/08 05:49:07;;;;;;;1.63;1.52;;;23.40;50.00;;;-147.20;100.00;58430.41;5094232;28;20086;-10
2021/09/08 05:51:33;;;;;;;1.65;1.55;;;23.50;49.90;;;-147.20;100.00;58430.41;5094202;28;20056;-10
2021/09/08 05:53:58;;;;;;;1.75;1.60;;;23.50;49.70;;;-147.20;100.00;58430.41;5074829;28;20064;-10
2021/09/08 05:56:24;;;;;;;1.77;1.50;;;23.60;49.60;;;-147.20;100.00;58430.41;5094205;28;20188;-10
2021/09/08 05:58:50;;;;;;;2.00;1.80;;;23.60;49.50;;;-147.20;100.00;58430.41;5093741;28;20048;-10
2021/09/08 06:01:16;;;;;;;1.77;1.67;;;23.70;49.30;;;-147.20;100.00;58430.41;5094054;28;20051;-10
2021/09/08 06:03:41;;;;;;;1.92;1.83;;;23.80;49.30;;;-147.20;100.00;58430.41;5094198;28;20131;-10
2021/09/08 06:06:07;;;;;;;1.88;1.75;;;23.80;49.10;;;-147.20;100.00;58430.41;5094403;28;20048;-9
2021/09/08 06:08:33;;;;;;;1.73;1.63;;;23.90;49.00;;;-147.20;100.00;58430.41;5093734;28;20047;-10
2021/09/08 06:10:59;;;;;;;1.92;1.80;;;23.90;48.90;;;-147.20;100.00;58430.41;5093887;28;20043;-10
2021/09/08 06:13:25;;;;;;;2.05;1.85;;;24.00;48.70;;;-147.20;100.00;58430.41;5093780;28;20413;-10
2021/09/08 06:15:51;;;;;;;2.30;1.80;;;24.10;48.70;;;-147.20;100.00;58430.41;5093665;28;20470;-10
2021/09/08 06:18:17;;;;;;;1.95;1.70;;;24.10;48.50;;;-147.20;100.00;58430.41;5094001;28;20139;-10
2021/09/08 06:20:45;;;;;;;2.17;1.88;;;24.20;48.40;;;-147.20;100.00;58430.41;5093488;28;20048;-10
2021/09/08 06:23:12;;;;;;;2.00;1.80;;;24.20;48.20;;;-147.20;100.00;58430.41;5093490;28;20482;-10
2021/09/08 06:25:38;;;;;;;2.03;1.83;;;24.30;48.10;;;-147.20;100.00;58430.41;5093674;28;20128;-10
2021/09/08 06:28:05;;;;;;;1.98;1.80;;;24.40;48.10;;;-147.20;100.00;58430.41;5093432;28;20050;-10
2021/09/08 06:30:30;;;;;;;2.53;1.80;;;24.40;48.00;;;-147.20;100.00;58430.41;5092974;28;20558;-10
2021/09/08 06:32:56;;;;;;;2.00;1.80;;;24.40;47.80;;;-147.20;100.00;58430.41;5092958;28;20083;-10
2021/09/08 06:35:22;;;;;;;2.20;1.92;;;24.50;47.80;;;-147.20;100.00;58430.41;5093055;28;20398;-10
2021/09/08 06:37:47;;;;;;;2.22;1.85;;;24.50;47.70;;;-147.20;100.00;58430.41;5093311;28;20432;-10
2021/09/08 06:40:16;;;;;;;3.65;1.63;;;24.50;47.60;;;-147.20;100.00;58430.41;5093291;28;20490;-10
2021/09/08 06:42:42;;;;;;;3.85;2.08;;;24.60;47.60;;;-147.20;100.00;58430.41;5093012;28;20143;-10
2021/09/08 06:45:08;;;;;;;2.00;1.75;;;24.70;47.50;;;-147.20;100.00;58430.41;5093512;28;20137;-10
2021/09/08 06:47:34;;;;;;;1.92;1.73;;;24.70;47.40;;;-147.20;100.00;58430.41;5093066;28;20075;-10
2021/09/08 06:50:00;;;;;;;3.58;1.80;;;24.80;47.40;;;-147.20;100.00;58430.41;5093187;28;20493;-10
2021/09/08 06:52:26;;;;;;;2.20;1.77;;;24.80;47.30;;;-147.20;100.00;58430.41;5093093;28;20470;-10
2021/09/08 06:54:52;;;;;;;2.08;1.63;;;24.80;47.20;;;-147.20;100.00;58430.41;5093165;28;20131;-10
2021/09/08 06:57:18;;;;;;;2.03;1.80;;;24.90;47.80;;;-147.20;100.00;58430.41;5092956;28;20056;-10
2021/09/08 06:59:44;;;;;;;2.83;1.85;;;24.90;47.20;;;-147.20;100.00;58430.41;5093057;28;20055;-10
2021/09/08 07:02:10;;;;;;;2.88;1.98;;;24.90;47.10;;;-147.20;100.00;58430.41;5093048;28;20040;-10
2021/09/08 07:04:36;;;;;;;2.42;2.10;;;24.90;47.00;;;-147.20;100.00;58430.41;5093056;28;20105;-10
2021/09/08 07:07:02;;;;;;;2.00;1.80;;;25.00;47.00;;;-147.20;100.00;58430.41;5092761;28;20047;-10
2021/09/08 07:09:28;;;;;;;4.28;2.20;;;24.90;46.90;;;-147.20;100.00;58430.41;5092494;28;20051;-10
2021/09/08 07:11:53;;;;;;;3.75;1.80;;;25.00;46.90;;;-147.20;100.00;58430.41;5092771;28;20040;-10
2021/09/08 07:14:19;;;;;;;2.72;1.90;;;25.00;46.90;;;-147.20;100.00;58430.41;5074654;28;20414;-10
2021/09/08 07:16:46;;;;;;;2.17;1.90;;;25.00;46.90;;;-147.20;100.00;58430.41;5093244;28;20052;-10
2021/09/08 07:19:11;;;;;;;2.38;2.00;;;25.10;46.90;;;-147.20;100.00;58430.41;5072681;28;20059;-10
2021/09/08 07:21:38;;;;;;;44.38;5.93;;;25.00;46.80;;;-147.20;100.00;58430.41;5092602;28;20472;-10
2021/09/08 07:24:04;;;;;;;18.13;5.13;;;25.00;47.00;;;28.68;32.38;101877.38;5093002;28;20058;-10
2021/09/08 07:26:33;;;;;;;5.05;3.45;;;25.00;48.40;;;28.64;32.46;101877.63;5092776;28;20132;-11
2021/09/08 07:29:04;;;;;;;8.50;3.40;;;24.90;48.00;;;28.65;32.50;101878.47;5092630;28;20106;-11
2021/09/08 07:31:31;;;;;;;5.78;3.40;;;25.00;47.80;;;28.75;32.21;101875.91;5092590;28;20055;-11
2021/09/08 07:33:58;;;;;;;6.65;3.22;;;25.20;47.60;;;28.83;32.28;101874.34;5092579;28;20066;-11
2021/09/08 07:36:24;;;;;;;7.82;3.60;;;25.20;47.40;;;28.91;31.97;101876.41;5092606;28;20394;-11
2021/09/08 07:38:51;;;;;;;5.35;3.55;;;25.20;47.50;;;28.98;32.11;101871.38;5092553;28;20397;-11
2021/09/08 07:41:18;;;;;;;5.68;3.38;;;25.20;47.50;;;28.98;31.81;101864.16;5092561;28;20046;-11
2021/09/08 07:43:44;;;;;;;5.38;3.40;;;25.20;47.40;;;29.05;31.86;101869.06;5092790;28;20076;-11
2021/09/08 07:46:11;;;;;;;4.72;3.17;;;25.20;47.40;;;29.08;32.01;101874.19;5092426;28;20072;-11
2021/09/08 07:48:38;;;;;;;5.82;3.50;;;25.20;47.40;;;29.10;31.78;101867.72;5092283;28;20070;-11
2021/09/08 07:51:04;;;;;;;4.63;3.13;;;25.20;47.30;;;29.14;31.69;101871.00;5092487;28;20050;-12
2021/09/08 07:53:30;;;;;;;24.05;4.55;;;25.20;47.30;;;29.16;31.64;101864.50;5092315;28;20404;-11
2021/09/08 07:55:56;;;;;;;4.72;3.13;;;25.20;47.30;;;29.17;31.64;101865.41;5092362;28;20052;-11
2021/09/08 07:58:22;;;;;;;7.18;3.50;;;25.20;47.30;;;29.17;31.52;101868.94;5092293;28;20054;-11
2021/09/08 08:00:49;;;;;;;3.97;3.35;;;25.20;47.30;;;29.18;31.51;101861.72;5092227;28;20051;-11
2021/09/08 08:03:16;;;;;;;5.15;3.22;;;25.20;47.30;;;29.20;31.70;101859.75;5092194;28;20057;-11
2021/09/08 08:05:43;;;;;;;5.38;3.13;;;25.20;47.30;;;29.21;31.32;101864.16;5092175;28;20062;-11
2021/09/08 08:08:10;;;;;;;4.47;3.70;;;25.20;47.30;;;29.23;31.61;101858.66;5073674;28;20511;-11
2021/09/08 08:10:36;;;;;;;5.47;3.10;;;25.20;47.30;;;29.22;31.43;101852.44;5092752;28;20044;-11
2021/09/08 08:13:02;;;;;;;4.20;3.28;;;25.20;47.40;;;29.23;31.38;101856.81;5091872;28;20050;-12
2021/09/08 08:15:27;;;;;;;6.38;3.50;;;25.20;47.40;;;29.23;31.61;101858.66;5091939;28;20417;-11
2021/09/08 08:17:53;;;;;;;6.03;3.03;;;25.20;47.50;;;29.21;31.57;101853.38;5072273;28;20130;-11
2021/09/08 08:20:20;;;;;;;6.00;3.03;;;25.10;47.40;;;29.19;31.63;101844.59;5091599;28;20075;-11
2021/09/08 08:22:47;;;;;;;8.80;3.90;;;25.10;47.50;;;29.18;31.31;101846.41;5093735;28;20486;-11
2021/09/08 08:25:15;;;;;;;81.20;9.07;;;25.20;47.50;;;29.21;31.42;101849.84;5074270;28;20045;-11
2021/09/08 08:27:42;;;;;;;69.70;8.45;;;25.20;47.70;;;29.23;31.59;101847.88;5095133;28;20056;-11
2021/09/08 08:30:10;;;;;;;51.75;7.00;;;25.20;47.50;;;29.24;31.32;101853.16;5094927;28;20059;-11
2021/09/08 08:32:36;;;;;;;32.25;6.05;;;25.20;47.50;;;29.22;31.34;101846.16;5095274;28;20054;-11
2021/09/08 08:35:03;;;;;;;34.45;5.63;;;25.10;47.60;;;29.18;31.44;101841.03;5095380;28;20044;-12
2021/09/08 08:37:29;;;;;;;24.23;5.38;;;25.10;47.80;;;29.17;31.66;101843.88;5095687;28;20401;-12
2021/09/08 08:39:55;;;;;;;30.05;5.55;;;25.00;47.90;;;29.13;31.54;101843.19;5095113;28;20401;-12
2021/09/08 08:42:27;;;;;;;18.67;5.50;;;25.00;48.00;;;29.11;31.46;101842.47;5095498;28;20044;-12
2021/09/08 08:44:54;;;;;;;22.10;4.93;;;24.90;48.00;;;29.08;31.47;101845.41;5095487;28;20055;-12
2021/09/08 08:47:21;;;;;;;24.05;5.40;;;24.90;48.20;;;29.06;31.76;101838.47;5094981;28;20062;-11
2021/09/08 08:49:48;;;;;;;29.45;5.60;;;24.80;48.20;;;29.03;31.44;101842.25;5095262;28;20490;-12
2021/09/08 08:52:14;;;;;;;14.40;5.18;;;24.80;48.20;;;29.00;31.74;101840.69;5095028;28;20523;-12
2021/09/08 08:54:40;;;;;;;24.17;5.30;;;24.80;48.40;;;28.98;31.95;101845.31;5095082;28;20062;-12
2021/09/08 08:57:11;;;;;;;18.83;5.38;;;24.80;48.40;;;28.95;31.88;101839.31;5094877;28;20043;-12
2021/09/08 08:59:38;;;;;;;24.97;5.50;;;24.70;48.40;;;28.92;31.85;101837.75;5095010;28;20052;-11
2021/09/08 09:02:27;;;;;;;17.52;5.68;;;24.70;48.50;;;28.90;32.00;101833.47;5095203;28;20403;-12
2021/09/08 09:04:57;;;;;;;17.98;5.10;;;24.70;48.60;;;28.91;31.63;101844.09;5094867;28;20100;-12
2021/09/08 09:07:25;;;;;;;16.67;5.70;;;24.70;48.60;;;28.90;31.71;101836.16;5094647;28;20048;-12
2021/09/08 09:10:01;;;;;;;18.63;5.10;;;24.70;48.50;;;28.87;32.08;101831.00;5094893;28;20040;-12
2021/09/08 09:12:37;;;;;;;15.07;5.47;;;24.70;48.50;;;28.85;32.02;101827.59;5095043;28;20076;-12
2021/09/08 09:15:12;;;;;;;13.27;6.05;;;24.70;48.70;;;28.82;31.79;101831.41;5095008;28;20470;-12
2021/09/08 09:17:39;;;;;;;16.70;5.97;;;24.70;48.90;;;28.83;32.27;101833.97;5073974;28;20067;-12
2021/09/08 09:20:29;;;;;;;13.93;6.03;;;24.70;48.80;;;28.80;32.05;101831.53;5094638;28;20078;-12
2021/09/08 09:22:59;;;;;;;18.50;5.72;;;24.70;48.80;;;28.80;31.95;101839.59;5094443;28;20068;-12
2021/09/08 09:25:36;;;;;;;16.17;5.38;;;24.70;48.90;;;28.78;32.10;101829.91;5094500;28;20082;-11
2021/09/08 09:28:05;;;;;;;17.50;5.40;;;24.70;48.90;;;28.79;32.18;101824.41;5075633;28;20082;-12
2021/09/08 09:30:35;;;;;;;14.13;5.20;;;24.70;48.80;;;28.76;32.02;101818.44;5094274;28;20043;-11
2021/09/08 09:33:01;;;;;;;15.80;5.75;;;24.70;49.00;;;28.75;32.09;101822.09;5094198;28;20481;-11
2021/09/08 09:35:31;;;;;;;18.50;6.10;;;24.60;49.00;;;28.73;32.21;101819.50;5094416;28;20055;-12
2021/09/08 09:38:04;;;;;;;14.88;5.47;;;24.60;49.00;;;28.74;31.99;101820.41;5094267;28;20063;-12
2021/09/08 09:40:33;;;;;;;12.15;5.22;;;24.60;49.00;;;28.71;32.00;101812.56;5094276;28;20044;-12
2021/09/08 09:43:09;;;;;;;12.05;5.35;;;24.60;49.00;;;28.70;32.30;101810.84;5094302;28;20044;-11
2021/09/08 09:45:39;;;;;;;9.25;4.57;;;24.60;49.00;;;28.72;32.39;101814.25;5094631;28;20056;-12
2021/09/08 09:48:07;;;;;;;13.23;5.28;;;24.60;49.00;;;28.72;32.25;101815.13;5094328;28;20048;-12
2021/09/08 09:50:34;;;;;;;11.52;4.85;;;24.60;49.00;;;28.70;32.17;101811.72;5094082;28;20401;-12
2021/09/08 09:53:02;;;;;;;16.40;5.15;;;24.70;48.90;;;28.72;32.31;101819.63;5094349;28;20048;-12
2021/09/08 09:55:29;;;;;;;15.20;4.80;;;24.60;48.80;;;28.69;31.91;101803.75;5094574;28;20040;-11
2021/09/08 09:57:56;;;;;;;16.98;5.38;;;24.70;48.80;;;28.72;32.17;101808.88;5093976;28;20405;-11
2021/09/08 10:00:22;;;;;;;11.07;4.72;;;24.70;48.70;;;28.73;32.35;101799.84;5093859;28;20058;-11